Winchester Center, Connecticut
Current Conditions -  °F | °C
As of 10:51 PM on Saturday 22 Nov 2014 (Local Time) from KBDL Reporting Station
Overcast Overcast  
Wind Chill: 37°   Ceiling: 12000
Heat Index: 43°   Visibility: 10mi
Dew Point: 18°   Wind: 10mph
Humidity: 37%   Direction: 190°S
Pressure: 30.1"   Gusts: 21mph
Location:  41.9°N, 73.14°W
Report Text: KBDL 230351Z 19009G18KT 10SM SCT050 BKN120 OVC250 06/M08 A3010 RMK AO2 SLP196 T00611078
Loading
Personal Weather Stations






























Interactive Weather Map New forecast layout! Learn more

10-Day Weather Forecast

Advertisements
Track Severe Weather on mobile